Time;durP1;ratioP1;P1;durP2;ratioP2;P2;SDS_P1;SDS_P2;PMS_P1;PMS_P2;Temp;Humidity;BMP_temperature;BMP_pressure;BME280_temperature;BME280_humidity;BME280_pressure;Samples;Min_cycle;Max_cycle;Signal;HPM_P1;HPM_P2
2021/04/22 00:00:25;;;;;;;;;;;19.40;58.10;;;;;;5053662;28;1070;-71
2021/04/22 00:02:50;;;;;;;;;;;19.50;58.20;;;;;;5053706;28;1125;-71
2021/04/22 00:05:21;;;;;;;;;;;19.40;58.20;;;;;;5052653;28;1047;-71
2021/04/22 00:07:47;;;;;;;;;;;19.40;58.20;;;;;;5051254;28;1456;-72
2021/04/22 00:10:13;;;;;;;;;;;19.40;58.20;;;;;;5052444;28;1118;-72
2021/04/22 00:12:38;;;;;;;;;;;19.40;58.20;;;;;;5053972;28;1051;-72
2021/04/22 00:15:05;;;;;;;;;;;19.40;58.20;;;;;;5038433;28;1142;-72
2021/04/22 00:17:31;;;;;;;;;;;19.50;58.30;;;;;;5052997;28;1973;-72
2021/04/22 00:19:56;;;;;;;;;;;19.40;58.20;;;;;;5052088;28;1062;-72
2021/04/22 00:22:22;;;;;;;;;;;19.40;58.20;;;;;;5045324;28;1070;-72
2021/04/22 00:24:47;;;;;;;;;;;19.40;58.20;;;;;;5046825;28;1138;-72
2021/04/22 00:27:13;;;;;;;;;;;19.40;58.20;;;;;;5041383;28;1318;-72
2021/04/22 00:29:38;;;;;;;;;;;19.40;58.30;;;;;;5052962;28;930;-72
2021/04/22 00:32:04;;;;;;;;;;;19.40;58.30;;;;;;5053518;28;1110;-71
2021/04/22 00:34:29;;;;;;;;;;;19.40;58.30;;;;;;5053321;28;1034;-72
2021/04/22 00:36:55;;;;;;;;;;;19.40;58.30;;;;;;5053317;28;1971;-72
2021/04/22 00:39:20;;;;;;;;;;;19.40;58.30;;;;;;5052434;28;1122;-72
2021/04/22 00:41:46;;;;;;;;;;;19.40;58.30;;;;;;5053462;28;1118;-72
2021/04/22 00:44:11;;;;;;;;;;;19.40;58.30;;;;;;5053732;28;1110;-71
2021/04/22 00:46:36;;;;;;;;;;;19.40;58.30;;;;;;5052774;28;1282;-72
2021/04/22 00:49:02;;;;;;;;;;;19.40;58.30;;;;;;5052548;28;940;-72
2021/04/22 00:51:28;;;;;;;;;;;19.40;58.30;;;;;;5053778;28;1099;-72
2021/04/22 00:53:53;;;;;;;;;;;19.40;58.30;;;;;;5052615;28;1070;-72
2021/04/22 00:56:18;;;;;;;;;;;19.40;58.30;;;;;;5051936;28;1286;-73
2021/04/22 00:58:44;;;;;;;;;;;19.40;58.40;;;;;;5050593;28;1894;-72
2021/04/22 01:01:09;;;;;;;;;;;19.40;58.40;;;;;;5053002;28;819;-72
2021/04/22 01:03:35;;;;;;;;;;;19.40;58.40;;;;;;5052544;28;1055;-73
2021/04/22 01:06:02;;;;;;;;;;;19.40;58.40;;;;;;5052933;28;1273;-73
2021/04/22 01:08:28;;;;;;;;;;;19.30;58.40;;;;;;5052015;28;1134;-73
2021/04/22 01:10:53;;;;;;;;;;;19.30;58.30;;;;;;5053439;28;1070;-72
2021/04/22 01:13:18;;;;;;;;;;;19.40;58.40;;;;;;5052268;28;1083;-72
2021/04/22 01:15:44;;;;;;;;;;;19.40;58.50;;;;;;5052853;28;1374;-72
2021/04/22 01:18:10;;;;;;;;;;;19.30;58.40;;;;;;5051032;28;1890;-72
2021/04/22 01:20:38;;;;;;;;;;;19.30;58.40;;;;;;5052863;28;1059;-72
2021/04/22 01:23:03;;;;;;;;;;;19.30;58.40;;;;;;5052163;28;1062;-72
2021/04/22 01:25:30;;;;;;;;;;;19.40;58.50;;;;;;5050904;28;1090;-72
2021/04/22 01:27:56;;;;;;;;;;;19.30;58.40;;;;;;5049005;28;1223;-72
2021/04/22 01:30:22;;;;;;;;;;;19.30;59.00;;;;;;5051457;28;1066;-72
2021/04/22 01:32:48;;;;;;;;;;;19.30;58.40;;;;;;5052208;28;1113;-72
2021/04/22 01:35:17;;;;;;;;;;;19.30;58.40;;;;;;5051146;28;1032;-72
2021/04/22 01:37:43;;;;;;;;;;;19.30;58.40;;;;;;5049252;28;1959;-72
2021/04/22 01:40:08;;;;;;;;;;;19.30;58.40;;;;;;5052329;28;1086;-72
2021/04/22 01:42:34;;;;;;;;;;;19.30;58.40;;;;;;5050809;28;1090;-72
2021/04/22 01:44:59;;;;;;;;;;;19.30;58.40;;;;;;5051888;28;1082;-72
2021/04/22 01:47:25;;;;;;;;;;;19.30;58.30;;;;;;5051198;28;1354;-72
2021/04/22 01:49:50;;;;;;;;;;;19.40;58.40;;;;;;5050848;28;1169;-73
2021/04/22 01:52:15;;;;;;;;;;;19.40;58.30;;;;;;5051914;28;1114;-72
2021/04/22 01:54:41;;;;;;;;;;;19.40;58.30;;;;;;5050770;28;1071;-72
2021/04/22 01:57:06;;;;;;;;;;;19.40;58.30;;;;;;5051549;28;1895;-72
2021/04/22 01:59:32;;;;;;;;;;;19.40;58.20;;;;;;5050770;28;1139;-72
2021/04/22 02:01:57;;;;;;;;;;;19.40;58.20;;;;;;5052044;28;1058;-71
2021/04/22 02:04:23;;;;;;;;;;;19.40;58.20;;;;;;5052545;28;1062;-71
2021/04/22 02:06:48;;;;;;;;;;;19.40;58.20;;;;;;5050317;28;1361;-71
2021/04/22 02:09:13;;;;;;;;;;;19.40;58.10;;;;;;5049984;28;1202;-71
2021/04/22 02:11:39;;;;;;;;;;;19.40;58.10;;;;;;5052030;28;1226;-71
2021/04/22 02:14:04;;;;;;;;;;;19.40;58.10;;;;;;5052104;28;1079;-71
2021/04/22 02:16:30;;;;;;;;;;;19.40;58.10;;;;;;5051973;28;1274;-71
2021/04/22 02:18:55;;;;;;;;;;;19.40;58.10;;;;;;5040860;28;1910;-72
2021/04/22 02:21:20;;;;;;;;;;;19.50;58.10;;;;;;5046144;28;1044;-70
2021/04/22 02:23:46;;;;;;;;;;;19.50;58.10;;;;;;5051702;28;1133;-71
2021/04/22 02:26:11;;;;;;;;;;;19.50;58.10;;;;;;5039562;28;1292;-71
2021/04/22 02:28:37;;;;;;;;;;;19.50;58.10;;;;;;5050086;28;1094;-71
2021/04/22 02:31:02;;;;;;;;;;;19.50;58.00;;;;;;5051753;28;991;-71
2021/04/22 02:33:28;;;;;;;;;;;19.50;58.00;;;;;;5050624;28;911;-72
2021/04/22 02:35:53;;;;;;;;;;;19.50;58.00;;;;;;5050208;28;1366;-72
2021/04/22 02:38:19;;;;;;;;;;;19.50;57.80;;;;;;5051296;28;1894;-72
2021/04/22 02:40:44;;;;;;;;;;;19.50;57.80;;;;;;5055498;28;1177;-71
2021/04/22 02:43:10;;;;;;;;;;;19.60;57.80;;;;;;5055874;28;1129;-70
2021/04/22 02:45:37;;;;;;;;;;;19.60;57.70;;;;;;5055596;28;1043;-71
2021/04/22 02:48:02;;;;;;;;;;;19.70;57.60;;;;;;5052832;28;1307;-71
2021/04/22 02:50:29;;;;;;;;;;;19.80;57.40;;;;;;5055421;28;1122;-71
2021/04/22 02:52:54;;;;;;;;;;;19.90;57.30;;;;;;5054081;28;1052;-71
2021/04/22 02:55:19;;;;;;;;;;;20.00;57.00;;;;;;5055235;28;1157;-71
2021/04/22 02:57:45;;;;;;;;;;;20.10;56.80;;;;;;5048147;28;1899;-71
2021/04/22 03:00:11;;;;;;;;;;;20.20;56.60;;;;;;5048600;28;1130;-71
2021/04/22 03:02:37;;;;;;;;;;;20.30;56.40;;;;;;5054922;28;1110;-71
2021/04/22 03:05:03;;;;;;;;;;;20.40;56.30;;;;;;5053850;28;1083;-71
2021/04/22 03:07:31;;;;;;;;;;;20.40;56.10;;;;;;5052968;28;1309;-71
2021/04/22 03:09:57;;;;;;;;;;;20.50;56.00;;;;;;5054049;28;1107;-72
2021/04/22 03:12:22;;;;;;;;;;;20.60;55.90;;;;;;5054763;28;1054;-71
2021/04/22 03:14:47;;;;;;;;;;;20.60;55.70;;;;;;5054683;28;1129;-71
2021/04/22 03:17:13;;;;;;;;;;;20.70;55.60;;;;;;5054455;28;1913;-71
2021/04/22 03:19:38;;;;;;;;;;;20.70;55.50;;;;;;5054831;28;1059;-71
2021/04/22 03:22:04;;;;;;;;;;;20.70;55.40;;;;;;5054307;28;1090;-71
2021/04/22 03:24:29;;;;;;;;;;;20.80;55.30;;;;;;5054780;28;1059;-71
2021/04/22 03:26:55;;;;;;;;;;;20.80;55.20;;;;;;5042125;28;1307;-71
2021/04/22 03:29:20;;;;;;;;;;;20.80;55.20;;;;;;5054386;28;1121;-71
2021/04/22 03:31:45;;;;;;;;;;;20.90;55.10;;;;;;5054812;28;1037;-71
2021/04/22 03:34:11;;;;;;;;;;;20.90;55.10;;;;;;5054638;28;981;-71
2021/04/22 03:36:36;;;;;;;;;;;20.90;55.00;;;;;;5054193;28;1898;-71
2021/04/22 03:39:03;;;;;;;;;;;21.00;55.00;;;;;;5054073;28;839;-71
2021/04/22 03:41:28;;;;;;;;;;;21.00;55.00;;;;;;5054459;28;1110;-71
2021/04/22 03:43:53;;;;;;;;;;;21.00;54.90;;;;;;5054236;28;1054;-71
2021/04/22 03:46:19;;;;;;;;;;;21.00;54.90;;;;;;5054439;28;1282;-71
2021/04/22 03:48:44;;;;;;;;;;;21.00;54.80;;;;;;5053432;28;1117;-71
2021/04/22 03:51:10;;;;;;;;;;;21.10;54.80;;;;;;5053593;28;1096;-71
2021/04/22 03:53:35;;;;;;;;;;;21.10;54.80;;;;;;5053042;28;1072;-71
2021/04/22 03:56:01;;;;;;;;;;;21.10;54.80;;;;;;5048960;28;1382;-71
2021/04/22 03:58:26;;;;;;;;;;;21.10;54.70;;;;;;5045017;28;1891;-71
2021/04/22 04:00:52;;;;;;;;;;;21.10;54.70;;;;;;5040784;28;1115;-71
2021/04/22 04:03:21;;;;;;;;;;;21.10;54.70;;;;;;5054213;28;1156;-71
2021/04/22 04:05:46;;;;;;;;;;;21.10;54.80;;;;;;5048030;28;1385;-71
2021/04/22 04:08:12;;;;;;;;;;;21.10;54.70;;;;;;5039847;22;2142;-65
2021/04/22 04:10:37;;;;;;;;;;;21.10;54.70;;;;;;5033736;28;1112;-65
2021/04/22 04:13:02;;;;;;;;;;;21.10;54.70;;;;;;5033697;28;1139;-65
2021/04/22 04:15:28;;;;;;;;;;;21.10;54.70;;;;;;5033705;28;1132;-65
2021/04/22 04:17:53;;;;;;;;;;;21.10;54.80;;;;;;5032618;28;1963;-65
2021/04/22 04:20:19;;;;;;;;;;;21.10;54.80;;;;;;5033264;28;1135;-65
2021/04/22 04:22:44;;;;;;;;;;;21.10;54.90;;;;;;5032317;28;1081;-65
2021/04/22 04:25:10;;;;;;;;;;;21.10;54.90;;;;;;5032482;28;1096;-65
2021/04/22 04:27:35;;;;;;;;;;;21.10;54.90;;;;;;5032427;28;1276;-65
2021/04/22 04:30:01;;;;;;;;;;;21.10;55.60;;;;;;5033353;28;1064;-65
2021/04/22 04:32:26;;;;;;;;;;;21.00;55.00;;;;;;5032507;28;1113;-65
2021/04/22 04:34:52;;;;;;;;;;;21.00;55.00;;;;;;5033133;28;1076;-65
2021/04/22 04:37:17;;;;;;;;;;;21.00;55.10;;;;;;5032896;28;1957;-65
2021/04/22 04:39:43;;;;;;;;;;;21.00;55.10;;;;;;5033529;28;1116;-65
2021/04/22 04:42:08;;;;;;;;;;;21.00;55.10;;;;;;5030169;28;1115;-63
2021/04/22 04:44:34;;;;;;;;;;;21.00;55.20;;;;;;5016422;28;1801;-62
2021/04/22 04:47:00;;;;;;;;;;;21.00;55.30;;;;;;5031783;28;1303;-63
2021/04/22 04:49:25;;;;;;;;;;;21.00;55.30;;;;;;5030871;28;1256;-62
2021/04/22 04:51:50;;;;;;;;;;;20.90;55.30;;;;;;5032511;28;1084;-62
2021/04/22 04:54:16;;;;;;;;;;;20.90;55.30;;;;;;5030465;28;1159;-63
2021/04/22 04:56:42;;;;;;;;;;;20.90;55.30;;;;;;5032112;28;1906;-62
2021/04/22 04:59:07;;;;;;;;;;;20.90;55.40;;;;;;5031718;28;1080;-62
2021/04/22 05:01:33;;;;;;;;;;;20.90;55.50;;;;;;5031904;28;1120;-62
2021/04/22 05:03:58;;;;;;;;;;;20.90;55.50;;;;;;5031192;28;1056;-63
2021/04/22 05:06:24;;;;;;;;;;;20.80;55.50;;;;;;5031927;28;1162;-62
2021/04/22 05:08:50;;;;;;;;;;;20.80;55.50;;;;;;5030815;28;1227;-62
2021/04/22 05:11:15;;;;;;;;;;;20.80;55.60;;;;;;5030152;28;1652;-62
2021/04/22 05:16:17;;;;;;;;;;;20.80;56.20;;;;;;5602904;22;1828;-69
2021/04/22 05:18:42;;;;;;;;;;;20.80;55.70;;;;;;5053393;28;1993;-68
2021/04/22 05:21:08;;;;;;;;;;;20.80;55.70;;;;;;5072987;28;1515;-69
2021/04/22 05:23:33;;;;;;;;;;;20.80;55.70;;;;;;5049916;28;1728;-68
2021/04/22 05:25:58;;;;;;;;;;;20.80;55.70;;;;;;5049563;28;2135;-70
2021/04/22 05:28:24;;;;;;;;;;;20.80;55.70;;;;;;5046656;28;1068;-71
2021/04/22 05:30:50;;;;;;;;;;;20.80;55.60;;;;;;5069604;22;2163;-73
2021/04/22 05:33:15;;;;;;;;;;;20.80;55.70;;;;;;5070764;28;1484;-73
2021/04/22 05:35:41;;;;;;;;;;;20.80;55.60;;;;;;5061718;28;1119;-73
2021/04/22 05:38:06;;;;;;;;;;;20.80;55.70;;;;;;5082625;28;1959;-73
2021/04/22 05:40:32;;;;;;;;;;;20.80;55.70;;;;;;5073972;28;2037;-73
2021/04/22 05:42:57;;;;;;;;;;;20.80;55.70;;;;;;5060348;28;1971;-72
2021/04/22 05:45:23;;;;;;;;;;;20.80;55.70;;;;;;5061945;28;1273;-73
2021/04/22 05:47:49;;;;;;;;;;;20.80;55.70;;;;;;5057351;28;1683;-73
2021/04/22 05:50:14;;;;;;;;;;;20.80;55.70;;;;;;5061167;28;1533;-72
2021/04/22 05:52:40;;;;;;;;;;;20.80;55.70;;;;;;5066239;28;1197;-73
2021/04/22 05:55:06;;;;;;;;;;;20.80;55.80;;;;;;5052150;28;1418;-70
2021/04/22 05:57:31;;;;;;;;;;;20.80;55.80;;;;;;5065306;28;1945;-71
2021/04/22 05:59:57;;;;;;;;;;;20.70;55.70;;;;;;5070811;28;1555;-71
2021/04/22 06:02:23;;;;;;;;;;;20.80;55.80;;;;;;5071988;28;1482;-71
2021/04/22 06:04:48;;;;;;;;;;;20.70;55.80;;;;;;5072327;28;1238;-71
2021/04/22 06:07:14;;;;;;;;;;;20.70;55.80;;;;;;5053491;28;1507;-71
2021/04/22 06:09:39;;;;;;;;;;;20.70;55.90;;;;;;5031173;28;1454;-72
2021/04/22 06:12:08;;;;;;;;;;;20.70;55.90;;;;;;5056595;28;1998;-70
2021/04/22 06:14:33;;;;;;;;;;;20.70;55.90;;;;;;5070426;28;944;-72
2021/04/22 06:16:59;;;;;;;;;;;20.70;55.90;;;;;;5048813;28;1914;-70
2021/04/22 06:19:24;;;;;;;;;;;20.70;56.00;;;;;;5036437;28;1341;-70
2021/04/22 06:21:50;;;;;;;;;;;20.70;56.00;;;;;;5056145;28;1236;-69
2021/04/22 06:24:15;;;;;;;;;;;20.70;56.00;;;;;;5066609;28;929;-67
2021/04/22 06:26:43;;;;;;;;;;;20.70;56.10;;;;;;5050910;28;1083;-68
2021/04/22 06:29:10;;;;;;;;;;;20.70;56.10;;;;;;5057636;28;1071;-69
2021/04/22 06:31:35;;;;;;;;;;;20.70;56.20;;;;;;5073590;28;1268;-68
2021/04/22 06:34:01;;;;;;;;;;;20.70;56.20;;;;;;5074409;28;1058;-69
2021/04/22 06:36:26;;;;;;;;;;;20.60;56.20;;;;;;5073618;28;1114;-68
2021/04/22 06:38:52;;;;;;;;;;;20.60;56.20;;;;;;5065589;28;1961;-68
2021/04/22 06:41:17;;;;;;;;;;;20.60;56.20;;;;;;5073957;28;1241;-68
2021/04/22 06:43:43;;;;;;;;;;;20.60;56.20;;;;;;5073555;28;1067;-69
2021/04/22 06:46:11;;;;;;;;;;;20.60;56.30;;;;;;5073259;28;1138;-69
2021/04/22 06:48:37;;;;;;;;;;;20.60;56.30;;;;;;5062533;28;1022;-69
2021/04/22 06:51:03;;;;;;;;;;;20.60;56.30;;;;;;5062932;28;1264;-67
2021/04/22 06:53:28;;;;;;;;;;;20.50;56.30;;;;;;5052996;28;1099;-67
2021/04/22 06:55:53;;;;;;;;;;;20.50;56.30;;;;;;5053002;28;1003;-71
2021/04/22 06:58:19;;;;;;;;;;;20.60;56.40;;;;;;5054426;28;1961;-71
2021/04/22 07:00:44;;;;;;;;;;;20.50;56.40;;;;;;5054508;28;1245;-71
2021/04/22 07:03:10;;;;;;;;;;;20.50;57.00;;;;;;5053734;28;1075;-71
2021/04/22 07:05:35;;;;;;;;;;;20.50;56.40;;;;;;5052819;28;1167;-72
2021/04/22 07:08:01;;;;;;;;;;;20.50;56.40;;;;;;5053353;28;1076;-71
2021/04/22 07:10:26;;;;;;;;;;;20.50;56.40;;;;;;5052502;28;1240;-70
2021/04/22 07:12:52;;;;;;;;;;;20.50;56.50;;;;;;5054495;28;1110;-71
2021/04/22 07:15:17;;;;;;;;;;;20.50;56.50;;;;;;5070398;28;1071;-71
2021/04/22 07:17:43;;;;;;;;;;;20.50;56.50;;;;;;5074676;28;1914;-71
2021/04/22 07:20:10;;;;;;;;;;;20.50;56.50;;;;;;5072850;28;1330;-71
2021/04/22 07:22:36;;;;;;;;;;;20.40;56.50;;;;;;5072814;28;1082;-71
2021/04/22 07:25:02;;;;;;;;;;;20.40;56.50;;;;;;5052384;28;1385;-71
2021/04/22 07:27:28;;;;;;;;;;;20.40;57.10;;;;;;5068991;28;1063;-70
2021/04/22 07:29:53;;;;;;;;;;;20.40;56.50;;;;;;5052494;28;1241;-70
2021/04/22 07:32:20;;;;;;;;;;;20.40;56.60;;;;;;5054097;28;1775;-70
2021/04/22 07:34:47;;;;;;;;;;;20.40;56.60;;;;;;5054318;28;1102;-70
2021/04/22 07:37:13;;;;;;;;;;;20.40;56.60;;;;;;5053959;28;1910;-70
2021/04/22 07:39:38;;;;;;;;;;;20.40;56.60;;;;;;5054193;28;1019;-70
2021/04/22 07:42:04;;;;;;;;;;;20.40;56.60;;;;;;5053598;28;1308;-70
2021/04/22 07:44:29;;;;;;;;;;;20.40;56.70;;;;;;5052934;28;1146;-70
2021/04/22 07:46:55;;;;;;;;;;;20.40;56.70;;;;;;5052229;28;1355;-70
2021/04/22 07:49:20;;;;;;;;;;;20.40;56.70;;;;;;5055003;28;1098;-70
2021/04/22 07:51:46;;;;;;;;;;;20.40;56.70;;;;;;5054190;28;1170;-70
2021/04/22 07:54:11;;;;;;;;;;;20.40;56.70;;;;;;5053239;28;1003;-70
2021/04/22 07:56:37;;;;;;;;;;;20.40;56.70;;;;;;5053391;28;1031;-70
2021/04/22 07:59:03;;;;;;;;;;;20.40;56.80;;;;;;5053674;28;1952;-70
2021/04/22 08:01:29;;;;;;;;;;;20.40;56.80;;;;;;5052205;28;1271;-70
2021/04/22 08:03:54;;;;;;;;;;;20.40;56.80;;;;;;5053698;28;1186;-70
2021/04/22 08:06:20;;;;;;;;;;;20.30;56.70;;;;;;5053037;28;1166;-70
2021/04/22 08:08:45;;;;;;;;;;;20.30;56.80;;;;;;5053291;28;1177;-70
2021/04/22 08:11:11;;;;;;;;;;;20.30;56.80;;;;;;5053384;28;1275;-70
2021/04/22 08:13:37;;;;;;;;;;;20.30;56.80;;;;;;5049709;28;1157;-70
2021/04/22 08:16:03;;;;;;;;;;;20.30;56.80;;;;;;5043309;28;1094;-70
2021/04/22 08:18:28;;;;;;;;;;;20.30;56.90;;;;;;5053085;28;1957;-70
2021/04/22 08:20:56;;;;;;;;;;;20.30;56.90;;;;;;5053920;28;1248;-70
2021/04/22 08:23:22;;;;;;;;;;;20.30;56.90;;;;;;5052400;28;1429;-70
2021/04/22 08:25:49;;;;;;;;;;;20.30;56.90;;;;;;5042220;28;1587;-70
2021/04/22 08:28:15;;;;;;;;;;;20.30;57.00;;;;;;5045470;28;1349;-69
2021/04/22 08:30:43;;;;;;;;;;;20.30;57.00;;;;;;5059189;28;1619;-70
2021/04/22 08:33:09;;;;;;;;;;;20.30;57.00;;;;;;5047320;28;1717;-70
2021/04/22 08:35:34;;;;;;;;;;;20.30;57.00;;;;;;5047370;28;1084;-72
2021/04/22 08:38:00;;;;;;;;;;;20.20;57.00;;;;;;5043309;28;1961;-72
2021/04/22 08:40:25;;;;;;;;;;;20.20;57.00;;;;;;5054458;28;1347;-71
2021/04/22 08:42:51;;;;;;;;;;;20.20;57.00;;;;;;5048103;28;1337;-72
2021/04/22 08:45:17;;;;;;;;;;;20.20;57.00;;;;;;5056484;28;1100;-72
2021/04/22 08:47:42;;;;;;;;;;;20.20;57.10;;;;;;5048077;28;1095;-72
2021/04/22 08:50:28;;;;;;;;;;;20.20;57.10;;;;;;5059866;28;1335;-72
2021/04/22 08:52:54;;;;;;;;;;;20.20;57.10;;;;;;5051885;28;1122;-72
2021/04/22 08:55:20;;;;;;;;;;;20.20;57.10;;;;;;5054979;28;1076;-72
2021/04/22 08:57:46;;;;;;;;;;;20.20;57.10;;;;;;5045639;28;1902;-72
2021/04/22 09:00:12;;;;;;;;;;;20.20;57.20;;;;;;5052045;28;1419;-72
2021/04/22 09:02:38;;;;;;;;;;;20.20;57.20;;;;;;5066202;28;1071;-72
2021/04/22 09:05:03;;;;;;;;;;;20.20;57.20;;;;;;5071146;28;1094;-72
2021/04/22 09:07:29;;;;;;;;;;;20.20;57.20;;;;;;5057431;28;1109;-72
2021/04/22 09:09:54;;;;;;;;;;;20.20;57.20;;;;;;5072394;28;1167;-72
2021/04/22 09:12:20;;;;;;;;;;;20.20;57.20;;;;;;5072383;28;1169;-69
2021/04/22 09:14:59;;;;;;;;;;;20.20;57.20;;;;;;5049038;28;1112;-70
2021/04/22 09:17:24;;;;;;;;;;;20.10;57.20;;;;;;5037415;28;1906;-70
2021/04/22 09:19:53;;;;;;;;;;;20.10;57.20;;;;;;5049949;28;1244;-70
2021/04/22 09:22:18;;;;;;;;;;;20.10;57.30;;;;;;5051525;28;1145;-70
2021/04/22 09:24:44;;;;;;;;;;;20.10;57.30;;;;;;5058101;28;1101;-69
2021/04/22 09:27:13;;;;;;;;;;;20.10;57.30;;;;;;5066115;28;1074;-69
2021/04/22 09:29:49;;;;;;;;;;;20.10;57.30;;;;;;5049724;28;1158;-71
2021/04/22 09:32:18;;;;;;;;;;;20.10;57.30;;;;;;5050175;28;1115;-72
2021/04/22 09:34:50;;;;;;;;;;;20.10;57.40;;;;;;5051569;28;1082;-72
2021/04/22 09:37:15;;;;;;;;;;;20.10;57.40;;;;;;5051403;28;2353;-72
2021/04/22 09:39:41;;;;;;;;;;;20.10;57.40;;;;;;5049997;28;1162;-72
2021/04/22 09:42:10;;;;;;;;;;;20.10;57.40;;;;;;5051087;28;1236;-71
2021/04/22 09:44:36;;;;;;;;;;;20.10;57.40;;;;;;5049034;28;1184;-72
2021/04/22 09:47:08;;;;;;;;;;;20.10;57.40;;;;;;5053122;28;1052;-71
2021/04/22 09:49:43;;;;;;;;;;;20.10;57.40;;;;;;5053662;28;1258;-71
2021/04/22 09:52:08;;;;;;;;;;;20.10;57.40;;;;;;5054178;28;1103;-71
2021/04/22 09:54:41;;;;;;;;;;;20.10;57.40;;;;;;5054751;28;1118;-70
2021/04/22 09:57:06;;;;;;;;;;;20.10;57.40;;;;;;5054370;28;1906;-69
2021/04/22 09:59:31;;;;;;;;;;;20.10;57.40;;;;;;5054749;28;1103;-70
2021/04/22 10:01:58;;;;;;;;;;;20.00;57.40;;;;;;5054698;28;1197;-71
2021/04/22 10:04:43;;;;;;;;;;;20.00;57.40;;;;;;5055200;28;1121;-70
2021/04/22 10:07:24;;;;;;;;;;;20.10;57.50;;;;;;5052985;28;1224;-69
2021/04/22 10:09:53;;;;;;;;;;;20.00;57.40;;;;;;5054374;28;1197;-69
2021/04/22 10:12:23;;;;;;;;;;;20.10;57.50;;;;;;5053893;28;1127;-70
2021/04/22 10:14:49;;;;;;;;;;;20.00;57.40;;;;;;5042970;28;1114;-71
2021/04/22 10:17:23;;;;;;;;;;;20.10;57.50;;;;;;5074853;28;1964;-70
2021/04/22 10:19:59;;;;;;;;;;;20.00;57.40;;;;;;5074169;28;1375;-70
2021/04/22 10:22:29;;;;;;;;;;;20.00;57.50;;;;;;5073995;28;1158;-70
2021/04/22 10:24:55;;;;;;;;;;;20.00;57.50;;;;;;5072209;28;1222;-70
2021/04/22 10:27:22;;;;;;;;;;;20.00;57.40;;;;;;5071077;28;1134;-71
2021/04/22 10:29:48;;;;;;;;;;;20.00;57.50;;;;;;5055649;28;1359;-70
2021/04/22 10:32:13;;;;;;;;;;;20.00;57.50;;;;;;5054477;28;1129;-71
2021/04/22 10:34:39;;;;;;;;;;;20.00;57.50;;;;;;5054206;28;1127;-71
2021/04/22 10:37:04;;;;;;;;;;;20.00;57.50;;;;;;5053627;28;1957;-71
2021/04/22 10:39:30;;;;;;;;;;;20.00;57.50;;;;;;5055093;28;1134;-71
2021/04/22 10:41:55;;;;;;;;;;;20.00;57.50;;;;;;5053780;28;1186;-71
2021/04/22 10:44:21;;;;;;;;;;;20.00;57.50;;;;;;5055407;28;1071;-71
2021/04/22 10:46:47;;;;;;;;;;;20.00;57.50;;;;;;5051272;28;1908;-70
2021/04/22 10:49:12;;;;;;;;;;;20.00;57.50;;;;;;5071806;28;1017;-70
2021/04/22 10:51:38;;;;;;;;;;;20.00;57.50;;;;;;5036256;28;1303;-70
2021/04/22 10:54:03;;;;;;;;;;;20.00;57.50;;;;;;5056385;28;1090;-70
2021/04/22 10:56:29;;;;;;;;;;;20.00;57.50;;;;;;5046071;28;1142;-70
2021/04/22 10:58:54;;;;;;;;;;;20.00;57.50;;;;;;5063532;28;1923;-70
2021/04/22 11:01:20;;;;;;;;;;;20.00;57.60;;;;;;5059696;28;1300;-70
2021/04/22 11:03:46;;;;;;;;;;;20.00;57.60;;;;;;5072451;28;1280;-70
2021/04/22 11:06:15;;;;;;;;;;;20.00;57.60;;;;;;5060000;28;1173;-70
2021/04/22 11:08:47;;;;;;;;;;;19.90;57.50;;;;;;5068668;28;1150;-70
2021/04/22 11:11:22;;;;;;;;;;;20.00;57.60;;;;;;5072637;28;1172;-70
2021/04/22 11:13:47;;;;;;;;;;;19.90;57.60;;;;;;5068579;28;1094;-70
2021/04/22 11:16:13;;;;;;;;;;;20.00;57.60;;;;;;5050968;28;956;-69
2021/04/22 11:18:40;;;;;;;;;;;20.00;57.60;;;;;;5051980;28;1906;-70
2021/04/22 11:21:06;;;;;;;;;;;19.90;57.60;;;;;;5052444;28;1307;-68
2021/04/22 11:23:38;;;;;;;;;;;19.90;57.60;;;;;;5051327;28;1143;-68
2021/04/22 11:26:04;;;;;;;;;;;19.90;57.60;;;;;;5042225;28;1147;-68
2021/04/22 11:28:30;;;;;;;;;;;19.90;57.60;;;;;;5052057;28;1100;-68
2021/04/22 11:31:15;;;;;;;;;;;19.90;57.60;;;;;;5050930;28;2062;-69
2021/04/22 11:33:40;;;;;;;;;;;19.90;57.60;;;;;;5057220;28;1115;-68
2021/04/22 11:36:09;;;;;;;;;;;19.90;57.60;;;;;;5048064;28;976;-69
2021/04/22 11:38:34;;;;;;;;;;;19.90;57.60;;;;;;5054241;28;1971;-68
2021/04/22 11:41:00;;;;;;;;;;;19.90;57.60;;;;;;5061293;28;1423;-68
2021/04/22 11:43:26;;;;;;;;;;;19.90;57.60;;;;;;5031408;28;1340;-69
2021/04/22 11:45:53;;;;;;;;;;;19.90;57.60;;;;;;5079123;28;1190;-68
2021/04/22 11:48:19;;;;;;;;;;;19.90;57.60;;;;;;5094104;22;1985;-65
2021/04/22 11:50:48;;;;;;;;;;;19.90;57.60;;;;;;5064676;28;1820;-65
2021/04/22 11:53:14;;;;;;;;;;;19.90;57.60;;;;;;5066446;28;1035;-65
2021/04/22 11:55:40;;;;;;;;;;;19.90;57.70;;;;;;5072881;28;1145;-66
2021/04/22 11:58:09;;;;;;;;;;;19.90;57.70;;;;;;5068385;28;1922;-63
2021/04/22 12:00:47;;;;;;;;;;;19.90;57.70;;;;;;5070739;28;1126;-64
2021/04/22 12:03:16;;;;;;;;;;;19.90;57.70;;;;;;5078222;28;2136;-65
2021/04/22 12:05:42;;;;;;;;;;;19.90;57.50;;;;;;5085826;28;1125;-65
2021/04/22 12:08:08;;;;;;;;;;;19.90;57.50;;;;;;5080799;28;1270;-65
2021/04/22 12:10:34;;;;;;;;;;;20.00;57.50;;;;;;5073244;28;1146;-65
2021/04/22 12:13:10;;;;;;;;;;;20.00;57.40;;;;;;5073860;28;1075;-65
2021/04/22 12:15:36;;;;;;;;;;;20.10;57.40;;;;;;5073365;28;1339;-65
2021/04/22 12:18:01;;;;;;;;;;;20.20;57.20;;;;;;5073349;28;1910;-65
2021/04/22 12:20:27;;;;;;;;;;;20.30;57.10;;;;;;5072485;28;1106;-65
2021/04/22 12:22:52;;;;;;;;;;;20.30;56.90;;;;;;5073230;28;1024;-65
2021/04/22 12:25:19;;;;;;;;;;;20.40;56.70;;;;;;5072398;28;1083;-65
2021/04/22 12:27:50;;;;;;;;;;;20.50;56.60;;;;;;5073422;28;1198;-65
2021/04/22 12:30:16;;;;;;;;;;;20.50;56.40;;;;;;5073541;28;1270;-65
2021/04/22 12:32:48;;;;;;;;;;;20.60;56.30;;;;;;5073256;28;1091;-65
2021/04/22 12:35:17;;;;;;;;;;;20.60;56.10;;;;;;5073551;28;1067;-64
2021/04/22 12:37:42;;;;;;;;;;;20.70;56.00;;;;;;5071813;28;1968;-65
2021/04/22 12:40:08;;;;;;;;;;;20.70;55.90;;;;;;5073754;28;1185;-66
2021/04/22 12:42:34;;;;;;;;;;;20.80;55.80;;;;;;5073289;28;1079;-65
2021/04/22 12:45:00;;;;;;;;;;;20.80;55.70;;;;;;5073132;28;1083;-65
2021/04/22 12:47:37;;;;;;;;;;;20.80;55.60;;;;;;5066988;28;1887;-66
2021/04/22 12:50:03;;;;;;;;;;;20.90;55.60;;;;;;5064176;28;1278;-65
2021/04/22 12:52:28;;;;;;;;;;;20.90;55.50;;;;;;5068207;28;1918;-64
2021/04/22 12:54:57;;;;;;;;;;;20.90;55.40;;;;;;5072641;28;1061;-66
2021/04/22 12:57:23;;;;;;;;;;;21.00;55.40;;;;;;5073056;28;1965;-66
2021/04/22 12:59:48;;;;;;;;;;;21.00;55.40;;;;;;5044914;28;1273;-64
2021/04/22 13:02:14;;;;;;;;;;;21.00;55.30;;;;;;5066919;28;1074;-65
2021/04/22 13:04:40;;;;;;;;;;;21.00;55.30;;;;;;5072482;28;1110;-62
2021/04/22 13:07:05;;;;;;;;;;;21.00;55.30;;;;;;5072865;28;1177;-62
2021/04/22 13:09:31;;;;;;;;;;;21.10;55.30;;;;;;5071548;28;1249;-63
2021/04/22 13:11:57;;;;;;;;;;;21.10;55.30;;;;;;5069670;28;2241;-62
2021/04/22 13:14:25;;;;;;;;;;;21.10;55.20;;;;;;5064726;28;1158;-63
2021/04/22 13:16:51;;;;;;;;;;;21.10;55.20;;;;;;5069919;28;1197;-64
2021/04/22 13:19:21;;;;;;;;;;;21.10;55.20;;;;;;5072584;28;1969;-62
2021/04/22 13:21:47;;;;;;;;;;;21.10;55.20;;;;;;5072517;28;1185;-63
2021/04/22 13:24:14;;;;;;;;;;;21.10;55.10;;;;;;5072686;28;1090;-62
2021/04/22 13:26:47;;;;;;;;;;;21.10;55.10;;;;;;5072348;28;1115;-62
2021/04/22 13:29:13;;;;;;;;;;;21.20;55.20;;;;;;5072422;28;1294;-62
2021/04/22 13:31:42;;;;;;;;;;;21.10;55.10;;;;;;5072323;28;1158;-62
2021/04/22 13:34:08;;;;;;;;;;;21.10;55.10;;;;;;5068135;28;1125;-63
2021/04/22 13:36:45;;;;;;;;;;;21.10;55.20;;;;;;5065433;28;1905;-62
2021/04/22 13:39:11;;;;;;;;;;;21.10;55.20;;;;;;5072075;28;1901;-62
2021/04/22 13:41:37;;;;;;;;;;;21.10;55.20;;;;;;5071296;28;1963;-66
2021/04/22 13:44:04;;;;;;;;;;;21.10;55.20;;;;;;5062972;28;1007;-65
2021/04/22 13:46:29;;;;;;;;;;;21.10;55.30;;;;;;5065412;28;1191;-66
2021/04/22 13:49:02;;;;;;;;;;;21.10;55.30;;;;;;5071427;28;1396;-65
2021/04/22 13:51:31;;;;;;;;;;;21.10;55.30;;;;;;5058768;28;1231;-65
2021/04/22 13:54:04;;;;;;;;;;;21.10;55.30;;;;;;5072814;28;1087;-65
2021/04/22 13:56:29;;;;;;;;;;;21.00;55.40;;;;;;5070968;28;1079;-66
2021/04/22 13:58:54;;;;;;;;;;;21.00;55.40;;;;;;5070578;28;1910;-65
2021/04/22 14:01:21;;;;;;;;;;;21.00;55.40;;;;;;5072415;28;1118;-65
2021/04/22 14:03:47;;;;;;;;;;;21.00;55.40;;;;;;5070845;28;1857;-65
2021/04/22 14:06:12;;;;;;;;;;;21.00;55.50;;;;;;5066872;28;1089;-65
2021/04/22 14:08:38;;;;;;;;;;;21.00;55.50;;;;;;5066109;28;1303;-65
2021/04/22 14:11:16;;;;;;;;;;;21.00;55.60;;;;;;5072410;28;1150;-65
2021/04/22 14:13:41;;;;;;;;;;;20.90;55.60;;;;;;5071964;28;1107;-65
2021/04/22 14:16:07;;;;;;;;;;;20.90;55.60;;;;;;5072102;28;1094;-64
2021/04/22 14:18:32;;;;;;;;;;;20.90;55.70;;;;;;5063754;28;1973;-65
2021/04/22 14:20:58;;;;;;;;;;;20.90;55.70;;;;;;5062236;28;1934;-65
2021/04/22 14:23:23;;;;;;;;;;;20.90;55.70;;;;;;5067796;28;972;-64
2021/04/22 14:25:49;;;;;;;;;;;20.90;55.80;;;;;;5071507;28;1106;-66
2021/04/22 14:28:14;;;;;;;;;;;20.90;55.80;;;;;;5070686;28;1274;-66